createdAt,value
2019-05-02T00:02:37.812Z,37.98
2019-05-02T00:07:43.103Z,37.94
2019-05-02T00:12:47.035Z,37.97
2019-05-02T00:17:50.487Z,38.01
2019-05-02T00:22:53.966Z,37.99
2019-05-02T00:27:57.586Z,38.03
2019-05-02T00:33:01.046Z,38.03
2019-05-02T00:38:04.505Z,38.04
2019-05-02T00:43:08.092Z,38.06
2019-05-02T00:48:19.326Z,38.08
2019-05-02T00:53:21.305Z,38.10
2019-05-02T00:58:27.269Z,38.10
2019-05-02T01:03:32.097Z,38.16
2019-05-02T01:08:36.900Z,38.16
2019-05-02T01:13:40.461Z,38.18
2019-05-02T01:18:44.585Z,38.19
2019-05-02T01:23:48.040Z,38.22
2019-05-02T01:29:05.098Z,38.21
2019-05-02T01:34:21.835Z,38.23
2019-05-02T01:39:25.729Z,38.25
2019-05-02T01:44:31.035Z,38.27
2019-05-02T01:49:34.368Z,38.25
2019-05-02T01:54:40.647Z,38.25
2019-05-02T01:59:42.996Z,38.30
2019-05-02T02:04:46.454Z,38.26
2019-05-02T02:09:49.907Z,38.29
2019-05-02T02:14:55.454Z,38.30
2019-05-02T02:20:00.184Z,38.33
2019-05-02T02:25:09.247Z,38.34
2019-05-02T02:30:17.828Z,38.34
2019-05-02T02:35:18.315Z,38.33
2019-05-02T02:40:32.914Z,38.33
2019-05-02T02:45:51.971Z,38.33
2019-05-02T02:50:51.694Z,38.33
2019-05-02T02:56:01.154Z,38.33
2019-05-02T03:01:00.495Z,38.34
2019-05-02T03:06:05.686Z,38.35
2019-05-02T03:11:11.004Z,38.33
2019-05-02T03:16:16.139Z,38.36
2019-05-02T03:21:22.309Z,38.34
2019-05-02T03:26:24.847Z,38.37
2019-05-02T03:31:30.875Z,38.37
2019-05-02T03:36:43.898Z,38.34
2019-05-02T03:41:47.412Z,38.35
2019-05-02T03:46:54.486Z,38.34
2019-05-02T03:52:02.632Z,38.36
2019-05-02T03:57:01.421Z,38.37
2019-05-02T04:02:04.936Z,38.36
2019-05-02T04:12:18.869Z,38.36
2019-05-02T04:17:17.786Z,38.38
2019-05-02T04:27:27.838Z,38.40
2019-05-02T04:32:30.828Z,38.36
2019-05-02T04:37:40.505Z,38.36
2019-05-02T04:47:57.523Z,38.34
2019-05-02T04:52:53.604Z,38.33
2019-05-02T04:57:53.306Z,38.34
2019-05-02T05:02:58.061Z,38.32
2019-05-02T05:08:01.598Z,38.32
2019-05-02T05:13:05.052Z,38.31
2019-05-02T05:18:10.481Z,38.35
2019-05-02T05:23:18.422Z,38.41
2019-05-02T05:28:20.515Z,38.41
2019-05-02T05:33:23.968Z,38.36
2019-05-02T05:38:28.631Z,38.39
2019-05-02T05:43:32.606Z,38.41
2019-05-02T05:48:39.203Z,38.40
2019-05-02T05:53:41.241Z,38.43
2019-05-02T05:58:50.554Z,38.46
2019-05-02T06:03:49.872Z,38.46
2019-05-02T06:08:54.131Z,38.47
2019-05-02T06:13:58.514Z,38.46
2019-05-02T06:19:01.974Z,38.46
2019-05-02T06:24:05.429Z,38.46
2019-05-02T06:29:13.059Z,38.46
2019-05-02T06:34:14.137Z,38.46
2019-05-02T06:39:17.596Z,38.49
2019-05-02T06:44:24.059Z,38.48
2019-05-02T06:49:26.227Z,38.51
2019-05-02T06:54:29.692Z,38.45
2019-05-02T06:59:33.151Z,37.63
2019-05-02T07:04:36.613Z,37.47
2019-05-02T07:09:41.551Z,36.77
2019-05-02T07:14:45.873Z,36.11
2019-05-02T07:19:51.002Z,36.11
2019-05-02T07:24:54.465Z,36.59
2019-05-02T07:29:59.652Z,36.87
2019-05-02T07:35:03.639Z,37.15
2019-05-02T07:40:12.166Z,37.29
2019-05-02T07:45:14.855Z,37.21
2019-05-02T07:50:18.491Z,37.33
2019-05-02T07:55:21.956Z,37.47
2019-05-02T08:00:25.486Z,37.69
2019-05-02T08:05:28.954Z,37.78
2019-05-02T08:10:32.418Z,37.87
2019-05-02T08:15:35.884Z,37.93
2019-05-02T08:20:39.346Z,37.93
2019-05-02T08:25:45.372Z,36.83
2019-05-02T08:30:52.569Z,36.09
2019-05-02T08:35:56.103Z,36.71
2019-05-02T08:40:59.566Z,36.95
2019-05-02T08:46:03.031Z,37.19
2019-05-02T08:51:06.496Z,37.44
2019-05-02T08:56:09.960Z,37.41
2019-05-02T09:01:15.345Z,37.39
2019-05-02T09:06:22.354Z,37.45
2019-05-02T09:11:23.819Z,37.45
2019-05-02T09:16:29.131Z,37.51
2019-05-02T09:21:36.003Z,37.98
2019-05-02T09:26:38.795Z,38.29
2019-05-02T09:31:46.092Z,38.47
2019-05-02T09:36:47.617Z,38.73
2019-05-02T09:41:52.735Z,38.82
2019-05-02T09:46:57.169Z,38.71
2019-05-02T09:52:01.403Z,38.60
2019-05-02T09:57:05.866Z,38.73
2019-05-02T10:02:09.404Z,38.83
2019-05-02T10:07:15.298Z,38.87
2019-05-02T10:12:18.072Z,38.89
2019-05-02T10:17:23.109Z,38.92
2019-05-02T10:22:33.732Z,38.85
2019-05-02T10:27:32.297Z,38.68
2019-05-02T10:32:35.743Z,38.56
2019-05-02T10:37:40.380Z,38.43
2019-05-02T10:42:43.848Z,38.23
2019-05-02T10:47:47.308Z,38.01
2019-05-02T10:52:52.633Z,37.93
2019-05-02T10:57:55.955Z,37.66
2019-05-02T11:03:17.356Z,37.40
2019-05-02T11:08:22.447Z,37.33
2019-05-02T11:13:27.695Z,37.25
2019-05-02T11:18:42.034Z,37.21
2019-05-02T11:23:38.079Z,37.04
2019-05-02T11:28:41.649Z,36.34
2019-05-02T11:33:45.066Z,36.29
2019-05-02T11:38:55.627Z,36.27
2019-05-02T11:43:55.749Z,35.88
2019-05-02T11:48:58.917Z,35.87
2019-05-02T11:54:05.199Z,36.03
2019-05-02T11:59:07.559Z,35.61
2019-05-02T12:04:12.975Z,35.62
2019-05-02T12:09:17.374Z,35.43
2019-05-02T12:14:22.860Z,35.39
2019-05-02T12:19:26.022Z,35.45
2019-05-02T12:24:29.480Z,35.46
2019-05-02T12:29:33.497Z,35.21
2019-05-02T12:34:37.185Z,34.87
2019-05-02T12:39:42.558Z,34.74
2019-05-02T12:44:45.821Z,34.69
2019-05-02T12:49:49.277Z,34.64
2019-05-02T12:54:52.743Z,34.59
2019-05-02T12:59:56.261Z,34.45
2019-05-02T13:04:59.722Z,34.34
2019-05-02T13:10:03.849Z,34.32
2019-05-02T13:15:08.045Z,34.43
2019-05-02T13:20:13.582Z,34.71
2019-05-02T13:25:18.856Z,35.03
2019-05-02T13:30:26.529Z,35.40
2019-05-02T13:35:33.750Z,35.53
2019-05-02T13:40:41.794Z,35.86
2019-05-02T13:45:55.966Z,36.18
2019-05-02T13:50:59.576Z,36.40
2019-05-02T13:56:23.867Z,36.65
2019-05-02T14:01:27.497Z,36.78
2019-05-02T14:06:35.720Z,36.97
2019-05-02T14:11:41.633Z,37.10
2019-05-02T14:16:45.876Z,37.24
2019-05-02T14:21:49.333Z,37.51
2019-05-02T14:26:52.784Z,37.58
2019-05-02T14:31:56.236Z,37.75
2019-05-02T14:37:01.926Z,37.85
2019-05-02T14:42:05.241Z,37.95
2019-05-02T14:47:10.019Z,38.12
2019-05-02T14:52:14.016Z,38.23
2019-05-02T14:57:25.484Z,38.29
2019-05-02T15:02:32.758Z,38.39
2019-05-02T15:07:38.432Z,38.50
2019-05-02T15:12:41.963Z,38.56
2019-05-02T15:17:45.529Z,38.68
2019-05-02T15:22:48.975Z,38.72
2019-05-02T15:27:58.185Z,38.71
2019-05-02T15:33:02.961Z,38.73
2019-05-02T15:38:07.011Z,38.69
2019-05-02T15:43:12.466Z,38.57
2019-05-02T15:48:22.569Z,38.49
2019-05-02T15:53:28.635Z,38.40
2019-05-02T15:58:32.472Z,38.33
2019-05-02T16:03:46.182Z,38.39
2019-05-02T16:08:48.821Z,38.40
2019-05-02T16:13:55.855Z,38.44
2019-05-02T16:18:57.830Z,38.53
2019-05-02T16:24:22.573Z,39.00
2019-05-02T16:29:28.407Z,38.93
2019-05-02T16:34:32.441Z,38.45
2019-05-02T16:39:36.113Z,37.97
2019-05-02T16:44:39.573Z,37.99
2019-05-02T16:49:43.468Z,37.90
2019-05-02T16:54:46.924Z,37.81
2019-05-02T16:59:53.877Z,37.40
2019-05-02T17:05:00.264Z,37.15
2019-05-02T17:10:02.956Z,36.27
2019-05-02T17:15:26.393Z,35.79
2019-05-02T17:20:29.556Z,35.41
2019-05-02T17:25:33.012Z,34.47
2019-05-02T17:30:38.875Z,34.21
2019-05-02T17:35:49.297Z,34.05
2019-05-02T17:40:46.996Z,33.86
2019-05-02T17:45:50.453Z,33.76
2019-05-02T17:51:04.165Z,33.78
2019-05-02T17:56:13.126Z,33.64
2019-05-02T18:01:14.695Z,33.60
2019-05-02T18:06:30.105Z,33.54
2019-05-02T18:11:23.399Z,33.41
2019-05-02T18:16:27.123Z,33.34
2019-05-02T18:21:32.259Z,33.29
2019-05-02T18:26:35.913Z,33.27
2019-05-02T18:31:44.967Z,33.24
2019-05-02T18:36:44.556Z,33.39
2019-05-02T18:41:48.013Z,33.49
2019-05-02T18:46:51.875Z,33.84
2019-05-02T18:51:57.392Z,34.13
2019-05-02T18:57:02.402Z,34.35
2019-05-02T19:02:06.266Z,34.91
2019-05-02T19:07:12.759Z,34.91
2019-05-02T19:12:22.485Z,34.96
2019-05-02T19:17:21.932Z,35.12
2019-05-02T19:22:25.469Z,35.27
2019-05-02T19:27:46.534Z,35.37
2019-05-02T19:32:50.145Z,35.50
2019-05-02T19:37:55.073Z,35.63
2019-05-02T19:43:03.367Z,35.74
2019-05-02T19:48:03.900Z,35.83
2019-05-02T19:53:14.953Z,35.91
2019-05-02T19:58:13.073Z,36.36
2019-05-02T20:03:21.876Z,36.36
2019-05-02T20:08:24.513Z,36.18
2019-05-02T20:13:29.597Z,36.23
2019-05-02T20:18:34.989Z,36.30
2019-05-02T20:23:37.320Z,36.35
2019-05-02T20:28:42.257Z,36.41
2019-05-02T20:33:45.877Z,36.47
2019-05-02T20:38:49.333Z,36.53
2019-05-02T20:43:52.788Z,36.51
2019-05-02T20:48:56.248Z,36.59
2019-05-02T20:54:01.839Z,36.67
2019-05-02T20:59:05.259Z,36.73
2019-05-02T21:04:08.713Z,36.79
2019-05-02T21:09:30.078Z,36.83
2019-05-02T21:14:33.531Z,36.89
2019-05-02T21:19:39.124Z,36.94
2019-05-02T21:24:42.575Z,36.97
2019-05-02T21:29:46.027Z,37.04
2019-05-02T21:34:49.480Z,37.10
2019-05-02T21:39:53.221Z,37.14
2019-05-02T21:44:56.676Z,37.19
2019-05-02T21:50:07.488Z,37.25
2019-05-02T21:55:18.681Z,37.28
2019-05-02T22:00:26.831Z,37.34
2019-05-02T22:05:31.686Z,37.38
2019-05-02T22:10:35.219Z,37.41
2019-05-02T22:15:38.676Z,37.46
2019-05-02T22:20:42.804Z,37.50
2019-05-02T22:25:46.364Z,37.53
2019-05-02T22:30:49.821Z,37.56
2019-05-02T22:35:53.275Z,37.61
2019-05-02T22:40:58.378Z,37.64
2019-05-02T22:46:03.477Z,37.67
2019-05-02T22:51:06.936Z,37.70
2019-05-02T22:56:11.759Z,37.73
2019-05-02T23:01:15.571Z,37.77
2019-05-02T23:06:19.030Z,37.81
2019-05-02T23:11:24.506Z,37.85
2019-05-02T23:16:27.805Z,37.87
2019-05-02T23:21:32.565Z,37.90
2019-05-02T23:26:37.827Z,37.96
2019-05-02T23:31:42.261Z,37.96
2019-05-02T23:36:45.921Z,38.00
2019-05-02T23:41:49.398Z,38.05
2019-05-02T23:46:52.833Z,38.08
2019-05-02T23:51:56.294Z,38.09
2019-05-02T23:56:59.748Z,38.12
